Felicity, California
Current Conditions -  °F | °C
As of 6:57 PM on Tuesday 25 Nov 2014 (Local Time) from KNYL Reporting Station
Clear Clear  
Wind Chill: 60°   Ceiling: Unl
Heat Index: 60°   Visibility: 10mi
Dew Point: 23°   Wind: 5mph
Humidity: 24%   Direction: 310°NW
Pressure: 30.31"   Gusts: NA
Location:  32.9392°N, 114.9°W
Report Text: KNYL 260257Z 31004KT 10SM CLR 16/M05 A3031 RMK AO2 SLP262 T01561050 53004
Loading
Personal Weather Stations






























Interactive Weather Map New forecast layout! Learn more

10-Day Weather Forecast

Advertisements
Track Severe Weather on mobile